createdAt,value
2023-04-05T00:01:19.353Z,17.67
2023-04-05T00:03:48.669Z,20.53
2023-04-05T00:06:17.110Z,19.40
2023-04-05T00:08:50.028Z,19.67
2023-04-05T00:11:18.883Z,18.77
2023-04-05T00:13:47.180Z,19.43
2023-04-05T00:16:17.368Z,20.20
2023-04-05T00:18:50.056Z,18.00
2023-04-05T00:21:21.928Z,24.03
2023-04-05T00:23:51.441Z,21.60
2023-04-05T00:26:20.069Z,17.67
2023-04-05T00:28:53.342Z,20.23
2023-04-05T00:31:23.101Z,15.83
2023-04-05T00:33:51.360Z,17.37
2023-04-05T00:36:21.310Z,18.00
2023-04-05T00:38:50.631Z,18.43
2023-04-05T00:41:18.897Z,18.77
2023-04-05T00:43:48.719Z,18.33
2023-04-05T00:46:17.325Z,16.93
2023-04-05T00:48:47.520Z,16.77
2023-04-05T00:51:17.370Z,16.63
2023-04-05T00:53:46.193Z,17.53
2023-04-05T00:56:16.879Z,16.47
2023-04-05T00:58:45.171Z,17.03
2023-04-05T01:01:18.373Z,18.10
2023-04-05T01:03:53.863Z,21.40
2023-04-05T01:06:38.874Z,17.63
2023-04-05T01:09:14.609Z,17.33
2023-04-05T01:11:44.331Z,20.10
2023-04-05T01:14:12.616Z,18.43
2023-04-05T01:16:40.919Z,20.93
2023-04-05T01:19:13.479Z,19.00
2023-04-05T01:22:14.318Z,21.53
2023-04-05T01:24:59.177Z,20.20
2023-04-05T01:27:43.956Z,21.73
2023-04-05T01:30:18.920Z,19.70
2023-04-05T01:33:02.716Z,20.00
2023-04-05T01:35:38.862Z,17.90
2023-04-05T01:38:11.548Z,18.43
2023-04-05T01:40:40.569Z,17.07
2023-04-05T01:43:14.827Z,21.47
2023-04-05T01:45:44.803Z,19.97
2023-04-05T01:48:13.393Z,20.47
2023-04-05T01:50:41.796Z,17.37
2023-04-05T01:53:10.131Z,19.67
2023-04-05T01:55:38.221Z,19.17
2023-04-05T01:58:06.370Z,20.60
2023-04-05T02:00:34.517Z,20.03
2023-04-05T02:03:03.993Z,17.53
2023-04-05T02:05:32.065Z,18.63
2023-04-05T02:08:00.140Z,19.63
2023-04-05T02:10:28.219Z,20.83
2023-04-05T02:12:56.645Z,17.63
2023-04-05T02:15:24.700Z,18.20
2023-04-05T02:17:54.157Z,18.37
2023-04-05T02:20:25.984Z,19.33
2023-04-05T02:22:54.091Z,18.40
2023-04-05T02:25:22.489Z,21.77
2023-04-05T02:27:50.652Z,18.97
2023-04-05T02:30:18.726Z,19.30
2023-04-05T02:32:47.036Z,17.83
2023-04-05T02:35:17.256Z,19.73
2023-04-05T02:37:46.782Z,20.57
2023-04-05T02:40:16.105Z,18.43
2023-04-05T02:42:44.145Z,19.07
2023-04-05T02:45:12.556Z,17.93
2023-04-05T02:47:41.189Z,19.57
2023-04-05T02:50:09.684Z,19.90
2023-04-05T02:52:43.411Z,20.43
2023-04-05T02:55:12.970Z,19.67
2023-04-05T02:57:41.187Z,21.70
2023-04-05T03:00:23.544Z,19.20
2023-04-05T03:02:53.279Z,20.07
2023-04-05T03:05:22.629Z,24.00
2023-04-05T03:07:53.371Z,22.40
2023-04-05T03:10:29.277Z,21.17
2023-04-05T03:13:04.284Z,19.43
2023-04-05T03:15:33.909Z,21.03
2023-04-05T03:18:08.105Z,20.77
2023-04-05T03:20:40.259Z,20.93
2023-04-05T03:23:14.457Z,21.67
2023-04-05T03:25:44.597Z,18.87
2023-04-05T03:28:13.516Z,20.50
2023-04-05T03:30:45.500Z,20.87
2023-04-05T03:33:19.999Z,19.17
2023-04-05T03:35:51.632Z,21.77
2023-04-05T03:38:20.572Z,19.30
2023-04-05T03:41:12.913Z,21.13
2023-04-05T03:43:41.076Z,21.70
2023-04-05T03:46:09.297Z,19.67
2023-04-05T03:48:37.872Z,19.43
2023-04-05T03:51:06.252Z,18.90
2023-04-05T03:53:34.302Z,19.53
2023-04-05T03:56:02.411Z,20.10
2023-04-05T03:58:54.177Z,19.90
2023-04-05T04:01:27.096Z,20.27
2023-04-05T04:03:55.337Z,18.80
2023-04-05T04:06:26.825Z,20.30
2023-04-05T04:08:54.963Z,22.20
2023-04-05T04:11:22.985Z,19.07
2023-04-05T04:13:53.156Z,18.90
2023-04-05T04:16:44.116Z,22.47
2023-04-05T04:19:34.291Z,21.03
2023-04-05T04:22:10.270Z,21.23
2023-04-05T04:24:56.971Z,22.23
2023-04-05T04:27:54.946Z,22.43
2023-04-05T04:30:50.587Z,19.83
2023-04-05T04:33:36.080Z,21.93
2023-04-05T04:36:37.098Z,29.40
2023-04-05T04:39:26.841Z,23.50
2023-04-05T04:42:22.802Z,20.70
2023-04-05T04:45:16.218Z,20.73
2023-04-05T04:47:52.875Z,21.00
2023-04-05T04:50:44.605Z,21.37
2023-04-05T04:53:13.648Z,22.60
2023-04-05T04:55:42.628Z,20.77
2023-04-05T04:58:11.819Z,20.47
2023-04-05T05:00:42.004Z,24.00
2023-04-05T05:03:12.002Z,22.67
2023-04-05T05:05:43.961Z,22.97
2023-04-05T05:08:12.207Z,24.00
2023-04-05T05:10:41.805Z,20.27
2023-04-05T05:13:11.248Z,23.07
2023-04-05T05:15:41.810Z,20.97
2023-04-05T05:18:12.519Z,22.50
2023-04-05T05:20:41.637Z,22.10
2023-04-05T05:23:10.127Z,19.83
2023-04-05T05:25:38.731Z,22.57
2023-04-05T05:28:06.963Z,23.03
2023-04-05T05:30:35.003Z,24.80
2023-04-05T05:33:03.085Z,23.50
2023-04-05T05:35:32.646Z,26.67
2023-04-05T05:38:01.423Z,25.27
2023-04-05T05:40:29.490Z,22.63
2023-04-05T05:42:57.526Z,24.13
2023-04-05T05:45:25.532Z,26.90
2023-04-05T05:47:53.650Z,29.73
2023-04-05T05:50:21.727Z,26.60
2023-04-05T05:52:51.523Z,26.33
2023-04-05T05:55:19.612Z,22.53
2023-04-05T05:57:47.623Z,23.00
2023-04-05T06:00:16.970Z,24.67
2023-04-05T06:02:45.106Z,24.13
2023-04-05T06:05:13.229Z,21.90
2023-04-05T06:07:41.305Z,23.60
2023-04-05T06:10:11.967Z,22.90
2023-04-05T06:12:40.034Z,20.17
2023-04-05T06:15:09.405Z,22.60
2023-04-05T06:17:42.058Z,23.03
2023-04-05T06:20:11.639Z,22.10
2023-04-05T06:22:40.933Z,20.43
2023-04-05T06:25:12.935Z,23.00
2023-04-05T06:27:41.185Z,21.73
2023-04-05T06:30:10.074Z,22.33
2023-04-05T06:32:38.186Z,20.03
2023-04-05T06:35:07.407Z,17.63
2023-04-05T06:37:35.443Z,21.67
2023-04-05T06:40:03.874Z,20.30
2023-04-05T06:42:33.331Z,16.57
2023-04-05T06:45:06.226Z,16.90
2023-04-05T06:47:35.592Z,18.43
2023-04-05T06:50:03.791Z,14.60
2023-04-05T06:52:31.886Z,15.77
2023-04-05T06:55:00.431Z,15.97
2023-04-05T06:57:28.827Z,16.43
2023-04-05T06:59:58.626Z,15.87
2023-04-05T07:02:26.967Z,14.47
2023-04-05T07:05:00.704Z,15.03
2023-04-05T07:07:28.881Z,14.03
2023-04-05T07:09:56.959Z,13.80
2023-04-05T07:12:25.141Z,15.57
2023-04-05T07:14:53.200Z,14.70
2023-04-05T07:17:22.793Z,15.60
2023-04-05T07:19:51.174Z,14.50
2023-04-05T07:22:19.341Z,14.20
2023-04-05T07:24:48.641Z,14.83
2023-04-05T07:27:17.009Z,13.13
2023-04-05T07:29:48.424Z,13.83
2023-04-05T07:32:16.832Z,13.43
2023-04-05T07:34:46.630Z,13.97
2023-04-05T07:37:15.099Z,14.43
2023-04-05T07:39:43.186Z,13.80
2023-04-05T07:42:11.318Z,14.17
2023-04-05T07:44:39.381Z,13.83
2023-04-05T07:47:07.649Z,13.90
2023-04-05T07:49:37.971Z,17.40
2023-04-05T07:52:07.816Z,13.43
2023-04-05T07:54:36.310Z,13.43
2023-04-05T07:57:04.692Z,14.43
2023-04-05T07:59:33.059Z,15.70
2023-04-05T08:02:08.382Z,14.23
2023-04-05T08:04:42.457Z,12.27
2023-04-05T08:07:13.015Z,13.33
2023-04-05T08:09:41.500Z,10.52
2023-04-05T08:12:11.544Z,15.57
2023-04-05T08:14:39.924Z,12.38
2023-04-05T08:17:08.174Z,13.93
2023-04-05T08:19:36.444Z,11.77
2023-04-05T08:22:04.706Z,14.80
2023-04-05T08:24:34.483Z,12.60
2023-04-05T08:27:02.789Z,15.60
2023-04-05T08:29:31.580Z,13.90
2023-04-05T08:31:59.912Z,12.70
2023-04-05T08:34:28.309Z,12.02
2023-04-05T08:36:59.850Z,10.63
2023-04-05T08:39:28.360Z,16.67
2023-04-05T08:42:04.760Z,11.27
2023-04-05T08:44:33.187Z,15.13
2023-04-05T08:47:02.268Z,11.95
2023-04-05T08:49:30.677Z,13.82
2023-04-05T08:52:02.115Z,14.85
2023-04-05T08:54:30.726Z,12.23
2023-04-05T08:57:01.369Z,11.77
2023-04-05T08:59:29.918Z,10.18
2023-04-05T09:02:01.015Z,10.95
2023-04-05T09:04:33.619Z,11.23
2023-04-05T09:07:05.969Z,12.30
2023-04-05T09:09:37.105Z,12.63
2023-04-05T09:12:08.883Z,11.93
2023-04-05T09:14:39.149Z,13.02
2023-04-05T09:17:07.999Z,11.55
2023-04-05T09:19:36.371Z,12.20
2023-04-05T09:22:05.799Z,12.52
2023-04-05T09:24:42.362Z,11.25
2023-04-05T09:27:13.577Z,9.45
2023-04-05T09:29:43.197Z,9.43
2023-04-05T09:32:12.968Z,8.65
2023-04-05T09:34:42.635Z,8.45
2023-04-05T09:37:19.979Z,9.50
2023-04-05T09:39:49.855Z,11.93
2023-04-05T09:42:22.969Z,10.82
2023-04-05T09:44:56.729Z,11.48
2023-04-05T09:47:27.604Z,8.90
2023-04-05T09:49:59.412Z,10.73
2023-04-05T09:52:31.947Z,10.30
2023-04-05T09:55:02.301Z,9.05
2023-04-05T09:57:36.160Z,10.77
2023-04-05T10:00:06.353Z,10.20
2023-04-05T10:02:42.866Z,9.13
2023-04-05T10:05:14.039Z,9.50
2023-04-05T10:07:43.185Z,12.25
2023-04-05T10:10:13.104Z,13.23
2023-04-05T10:12:45.544Z,9.18
2023-04-05T10:15:14.406Z,10.93
2023-04-05T10:17:49.854Z,10.32
2023-04-05T10:20:19.361Z,12.73
2023-04-05T10:22:58.509Z,8.90
2023-04-05T10:25:33.249Z,11.57
2023-04-05T10:28:05.748Z,10.98
2023-04-05T10:30:38.006Z,11.65
2023-04-05T10:33:14.945Z,8.95
2023-04-05T10:35:52.832Z,10.60
2023-04-05T10:38:26.141Z,11.15
2023-04-05T10:40:56.487Z,9.57
2023-04-05T10:43:27.377Z,9.45
2023-04-05T10:45:56.531Z,9.98
2023-04-05T10:48:35.755Z,10.25
2023-04-05T10:51:05.864Z,9.38
2023-04-05T10:53:35.454Z,10.85
2023-04-05T10:56:04.397Z,10.32
2023-04-05T10:58:35.683Z,9.95
2023-04-05T11:01:05.490Z,9.52
2023-04-05T11:03:43.924Z,9.82
2023-04-05T11:06:26.709Z,8.07
2023-04-05T11:08:58.188Z,10.88
2023-04-05T11:11:27.593Z,9.95
2023-04-05T11:13:58.246Z,10.07
2023-04-05T11:16:40.603Z,8.60
2023-04-05T11:19:09.069Z,7.85
2023-04-05T11:21:38.550Z,9.30
2023-04-05T11:24:08.856Z,9.25
2023-04-05T11:26:58.729Z,8.13
2023-04-05T11:29:54.441Z,8.20
2023-04-05T11:32:23.630Z,7.20
2023-04-05T11:35:06.693Z,7.32
2023-04-05T11:37:56.332Z,10.65
2023-04-05T11:40:29.906Z,8.85
2023-04-05T11:43:03.574Z,9.05
2023-04-05T11:45:34.295Z,9.45
2023-04-05T11:48:06.493Z,8.68
2023-04-05T11:50:35.464Z,8.90
2023-04-05T11:53:13.522Z,8.68
2023-04-05T11:55:43.915Z,8.95
2023-04-05T11:58:16.822Z,11.02
2023-04-05T12:00:47.412Z,7.88
2023-04-05T12:03:17.887Z,9.73
2023-04-05T12:05:51.041Z,6.65
2023-04-05T12:08:20.063Z,9.70
2023-04-05T12:10:56.361Z,6.22
2023-04-05T12:13:31.628Z,9.63
2023-04-05T12:16:02.210Z,9.18
2023-04-05T12:18:32.652Z,10.98
2023-04-05T12:21:03.694Z,10.43
2023-04-05T12:23:34.327Z,9.10
2023-04-05T12:26:03.836Z,9.63
2023-04-05T12:28:54.085Z,9.43
2023-04-05T12:31:40.145Z,9.77
2023-04-05T12:34:09.118Z,8.63
2023-04-05T12:36:37.620Z,8.85
2023-04-05T12:39:08.654Z,9.85
2023-04-05T12:41:38.000Z,9.18
2023-04-05T12:44:13.563Z,11.95
2023-04-05T12:46:44.058Z,11.30
2023-04-05T12:49:12.947Z,9.07
2023-04-05T12:51:44.104Z,8.55
2023-04-05T12:54:14.767Z,8.73
2023-04-05T12:56:43.678Z,9.63
2023-04-05T12:59:12.175Z,12.00
2023-04-05T13:01:40.552Z,9.40
2023-04-05T13:04:16.138Z,8.25
2023-04-05T13:06:47.327Z,7.45
2023-04-05T13:09:16.217Z,9.40
2023-04-05T13:11:44.393Z,9.68
2023-04-05T13:14:12.711Z,9.65
2023-04-05T13:16:41.128Z,8.77
2023-04-05T13:19:10.923Z,8.32
2023-04-05T13:21:39.485Z,6.88
2023-04-05T13:24:08.839Z,6.43
2023-04-05T13:26:37.792Z,7.30
2023-04-05T13:29:06.085Z,7.78
2023-04-05T13:31:34.685Z,5.80
2023-04-05T13:34:03.022Z,10.30
2023-04-05T13:36:32.632Z,6.57
2023-04-05T13:39:00.936Z,7.95
2023-04-05T13:41:29.437Z,10.07
2023-04-05T13:43:59.359Z,7.47
2023-04-05T13:46:29.471Z,8.70
2023-04-05T13:48:57.854Z,8.60
2023-04-05T13:51:28.659Z,6.75
2023-04-05T13:53:58.815Z,7.75
2023-04-05T13:56:27.051Z,7.20
2023-04-05T13:58:55.373Z,9.15
2023-04-05T14:01:23.845Z,6.88
2023-04-05T14:03:52.351Z,8.85
2023-04-05T14:06:20.820Z,9.07
2023-04-05T14:08:54.960Z,7.15
2023-04-05T14:11:25.102Z,8.25
2023-04-05T14:13:53.464Z,7.10
2023-04-05T14:16:21.812Z,8.65
2023-04-05T14:18:50.173Z,10.65
2023-04-05T14:21:18.576Z,6.57
2023-04-05T14:23:47.324Z,15.55
2023-04-05T14:26:15.645Z,8.15
2023-04-05T14:28:45.398Z,8.40
2023-04-05T14:31:13.729Z,10.15
2023-04-05T14:33:42.102Z,9.60
2023-04-05T14:36:10.383Z,8.20
2023-04-05T14:38:38.784Z,6.63
2023-04-05T14:41:07.215Z,8.60
2023-04-05T14:43:35.756Z,10.88
2023-04-05T14:46:05.646Z,11.18
2023-04-05T14:48:34.210Z,14.45
2023-04-05T14:51:02.500Z,8.60
2023-04-05T14:53:33.874Z,9.98
2023-04-05T14:56:02.166Z,10.07
2023-04-05T14:58:30.718Z,11.07
2023-04-05T15:00:59.057Z,11.07
2023-04-05T15:03:30.633Z,5.57
2023-04-05T15:05:59.506Z,8.77
2023-04-05T15:08:27.982Z,6.53
2023-04-05T15:10:56.339Z,9.13
2023-04-05T15:13:26.313Z,9.13
2023-04-05T15:15:54.571Z,9.82
2023-04-05T15:18:22.819Z,9.23
2023-04-05T15:20:53.423Z,8.15
2023-04-05T15:23:21.613Z,9.27
2023-04-05T15:25:50.284Z,8.57
2023-04-05T15:28:18.339Z,9.07
2023-04-05T15:30:46.439Z,11.20
2023-04-05T15:33:14.534Z,9.40
2023-04-05T15:35:42.650Z,8.93
2023-04-05T15:38:12.314Z,9.45
2023-04-05T15:40:40.414Z,9.95
2023-04-05T15:43:08.505Z,8.52
2023-04-05T15:45:36.606Z,8.68
2023-04-05T15:48:04.964Z,10.38
2023-04-05T15:50:33.108Z,8.88
2023-04-05T15:53:01.275Z,7.90
2023-04-05T15:55:30.868Z,10.45
2023-04-05T15:57:58.961Z,10.70
2023-04-05T16:00:27.623Z,8.98
2023-04-05T16:03:00.530Z,15.20
2023-04-05T16:05:29.224Z,10.27
2023-04-05T16:07:57.312Z,8.95
2023-04-05T16:10:26.094Z,11.90
2023-04-05T16:12:55.693Z,10.07
2023-04-05T16:15:24.590Z,10.45
2023-04-05T16:17:52.822Z,8.98
2023-04-05T16:20:22.054Z,9.73
2023-04-05T16:22:50.250Z,8.30
2023-04-05T16:25:18.705Z,10.60
2023-04-05T16:27:46.780Z,9.98
2023-04-05T16:30:16.816Z,11.27
2023-04-05T16:32:44.963Z,10.75
2023-04-05T16:35:13.065Z,9.68
2023-04-05T16:37:42.882Z,8.93
2023-04-05T16:40:11.962Z,10.45
2023-04-05T16:42:40.100Z,8.05
2023-04-05T16:45:08.968Z,9.98
2023-04-05T16:47:38.546Z,13.95
2023-04-05T16:50:07.628Z,10.48
2023-04-05T16:52:35.841Z,9.45
2023-04-05T16:55:04.230Z,11.35
2023-04-05T16:57:32.811Z,13.02
2023-04-05T17:00:00.892Z,8.52
2023-04-05T17:02:29.256Z,9.27
2023-04-05T17:04:58.757Z,9.73
2023-04-05T17:07:27.048Z,15.13
2023-04-05T17:09:57.145Z,11.05
2023-04-05T17:12:25.398Z,8.85
2023-04-05T17:14:53.438Z,12.13
2023-04-05T17:17:21.552Z,10.15
2023-04-05T17:19:49.629Z,11.95
2023-04-05T17:22:19.126Z,10.85
2023-04-05T17:24:47.525Z,11.57
2023-04-05T17:27:15.714Z,10.20
2023-04-05T17:29:43.804Z,11.40
2023-04-05T17:32:11.900Z,11.27
2023-04-05T17:34:40.022Z,13.10
2023-04-05T17:37:08.099Z,11.20
2023-04-05T17:39:37.563Z,10.27
2023-04-05T17:42:05.768Z,11.68
2023-04-05T17:44:34.033Z,13.55
2023-04-05T17:47:09.065Z,12.10
2023-04-05T17:49:38.012Z,11.75
2023-04-05T17:52:08.532Z,10.88
2023-04-05T17:54:39.955Z,9.77
2023-04-05T17:57:15.178Z,11.18
2023-04-05T17:59:44.116Z,9.20
2023-04-05T18:02:12.455Z,8.82
2023-04-05T18:04:41.172Z,8.73
2023-04-05T18:07:09.604Z,13.68
2023-04-05T18:09:41.974Z,14.88
2023-04-05T18:12:10.666Z,10.70
2023-04-05T18:14:38.832Z,13.82
2023-04-05T18:17:07.420Z,13.93
2023-04-05T18:19:35.806Z,13.48
2023-04-05T18:22:03.936Z,12.68
2023-04-05T18:24:32.499Z,11.88
2023-04-05T18:27:02.145Z,13.45
2023-04-05T18:29:30.863Z,13.02
2023-04-05T18:31:59.082Z,11.77
2023-04-05T18:34:27.287Z,12.15
2023-04-05T18:36:55.345Z,13.95
2023-04-05T18:39:26.215Z,13.48
2023-04-05T18:41:56.040Z,12.90
2023-04-05T18:44:26.198Z,13.40
2023-04-05T18:46:54.410Z,15.98
2023-04-05T18:49:22.530Z,13.55
2023-04-05T18:51:50.679Z,12.93
2023-04-05T18:54:19.353Z,12.93
2023-04-05T18:56:47.509Z,12.90
2023-04-05T18:59:16.375Z,12.65
2023-04-05T19:01:46.023Z,13.85
2023-04-05T19:04:16.222Z,13.52
2023-04-05T19:06:44.422Z,16.20
2023-04-05T19:09:15.852Z,14.00
2023-04-05T19:11:44.100Z,13.20
2023-04-05T19:14:12.260Z,12.77
2023-04-05T19:16:40.317Z,13.30
2023-04-05T19:19:10.113Z,15.20
2023-04-05T19:21:38.302Z,13.45
2023-04-05T19:24:08.787Z,14.13
2023-04-05T19:26:38.038Z,15.55
2023-04-05T19:29:07.447Z,14.52
2023-04-05T19:31:36.880Z,14.05
2023-04-05T19:34:07.522Z,13.60
2023-04-05T19:36:37.723Z,13.30
2023-04-05T19:39:07.248Z,14.90
2023-04-05T19:41:36.082Z,15.33
2023-04-05T19:44:08.771Z,17.67
2023-04-05T19:46:39.954Z,14.07
2023-04-05T19:49:11.577Z,16.67
2023-04-05T19:51:43.106Z,19.30
2023-04-05T19:54:14.720Z,17.63
2023-04-05T19:56:43.037Z,15.43
2023-04-05T19:59:30.129Z,16.40
2023-04-05T20:01:59.575Z,20.30
2023-04-05T20:04:29.269Z,15.83
2023-04-05T20:06:58.862Z,15.53
2023-04-05T20:09:29.321Z,18.03
2023-04-05T20:11:59.077Z,16.60
2023-04-05T20:14:30.389Z,16.17
2023-04-05T20:16:59.327Z,16.93
2023-04-05T20:19:30.686Z,15.77
2023-04-05T20:22:01.803Z,18.57
2023-04-05T20:24:30.471Z,17.00
2023-04-05T20:26:58.674Z,14.53
2023-04-05T20:29:32.239Z,15.30
2023-04-05T20:32:02.063Z,16.87
2023-04-05T20:34:32.713Z,16.83
2023-04-05T20:37:03.196Z,22.97
2023-04-05T20:39:31.755Z,20.47
2023-04-05T20:42:00.200Z,23.17
2023-04-05T20:44:28.453Z,18.53
2023-04-05T20:46:58.088Z,19.37
2023-04-05T20:49:29.854Z,21.33
2023-04-05T20:51:59.935Z,23.27
2023-04-05T20:54:29.475Z,26.50
2023-04-05T20:56:57.613Z,20.63
2023-04-05T20:59:26.243Z,23.83
2023-04-05T21:01:54.499Z,21.43
2023-04-05T21:04:22.703Z,22.60
2023-04-05T21:06:50.812Z,20.73
2023-04-05T21:09:18.973Z,21.93
2023-04-05T21:11:48.452Z,19.40
2023-04-05T21:14:16.513Z,18.07
2023-04-05T21:16:44.610Z,22.67
2023-04-05T21:19:12.691Z,20.00
2023-04-05T21:21:40.871Z,20.03
2023-04-05T21:24:09.063Z,20.83
2023-04-05T21:26:37.091Z,20.70
2023-04-05T21:29:06.857Z,20.67
2023-04-05T21:31:35.243Z,22.53
2023-04-05T21:34:03.413Z,20.43
2023-04-05T21:36:31.494Z,22.03
2023-04-05T21:38:59.588Z,22.47
2023-04-05T21:41:27.713Z,21.67
2023-04-05T21:43:55.729Z,17.83
2023-04-05T21:46:25.225Z,18.23
2023-04-05T21:48:53.342Z,17.23
2023-04-05T21:51:21.778Z,19.93
2023-04-05T21:53:49.869Z,18.50
2023-04-05T21:56:19.087Z,16.03
2023-04-05T21:58:47.172Z,16.83
2023-04-05T22:01:15.412Z,20.97
2023-04-05T22:03:44.936Z,18.17
2023-04-05T22:06:13.044Z,20.13
2023-04-05T22:08:41.271Z,17.67
2023-04-05T22:11:09.527Z,18.67
2023-04-05T22:13:37.611Z,20.80
2023-04-05T22:16:05.891Z,17.93
2023-04-05T22:18:34.107Z,17.60
2023-04-05T22:21:03.720Z,19.47
2023-04-05T22:23:31.811Z,17.47
2023-04-05T22:25:59.906Z,22.70
2023-04-05T22:28:28.012Z,17.90
2023-04-05T22:30:56.255Z,18.53
2023-04-05T22:33:24.344Z,17.30
2023-04-05T22:35:52.869Z,19.40
2023-04-05T22:38:22.320Z,17.97
2023-04-05T22:40:50.735Z,18.83
2023-04-05T22:43:18.795Z,18.80
2023-04-05T22:45:49.771Z,21.87
2023-04-05T22:48:17.952Z,21.10
2023-04-05T22:50:45.994Z,25.10
2023-04-05T22:53:14.120Z,18.60
2023-04-05T22:55:43.608Z,20.17
2023-04-05T22:58:11.735Z,19.17
2023-04-05T23:00:39.915Z,23.17
2023-04-05T23:03:08.066Z,20.07
2023-04-05T23:05:36.895Z,20.03
2023-04-05T23:08:05.211Z,18.77
2023-04-05T23:10:33.265Z,18.67
2023-04-05T23:13:02.716Z,18.30
2023-04-05T23:15:31.063Z,18.23
2023-04-05T23:17:59.197Z,20.70
2023-04-05T23:20:27.326Z,17.47
2023-04-05T23:22:55.428Z,19.13
2023-04-05T23:25:23.755Z,19.80
2023-04-05T23:27:53.752Z,20.00
2023-04-05T23:30:23.310Z,21.00
2023-04-05T23:32:51.469Z,20.33
2023-04-05T23:35:19.682Z,18.63
2023-04-05T23:37:47.851Z,19.67
2023-04-05T23:40:16.172Z,21.57
2023-04-05T23:42:44.229Z,20.97
2023-04-05T23:45:12.664Z,20.77
2023-04-05T23:47:42.198Z,19.33
2023-04-05T23:50:11.299Z,18.47
2023-04-05T23:52:39.352Z,20.50
2023-04-05T23:55:08.181Z,20.20
2023-04-05T23:57:36.313Z,19.07
